Time;durP1;ratioP1;P1;durP2;ratioP2;P2;SDS_P1;SDS_P2;PMS_P1;PMS_P2;Temp;Humidity;BMP_temperature;BMP_pressure;BME280_temperature;BME280_humidity;BME280_pressure;Samples;Min_cycle;Max_cycle;Signal;HPM_P1;HPM_P2
2022/09/06 00:00:38;;;;;;;66.37;3.50;;;23.00;1.00;;;;;;5014512;28;20484;-87
2022/09/06 00:03:04;;;;;;;67.90;3.93;;;23.10;1.00;;;;;;5013173;28;20405;-86
2022/09/06 00:05:31;;;;;;;71.20;4.53;;;23.00;1.00;;;;;;5015494;28;20393;-87
2022/09/06 00:08:01;;;;;;;70.50;6.27;;;23.10;1.00;;;;;;5014498;28;20906;-87
2022/09/06 00:10:28;;;;;;;75.73;6.30;;;23.00;1.00;;;;;;5012409;28;20413;-87
2022/09/06 00:12:57;;;;;;;67.70;5.20;;;23.00;1.00;;;;;;5013778;28;20479;-87
2022/09/06 00:15:23;;;;;;;72.50;6.60;;;22.80;24.00;;;;;;5012583;28;20420;-87
2022/09/06 00:17:50;;;;;;;71.20;7.97;;;22.70;31.60;;;;;;5012373;28;20472;-87
2022/09/06 00:20:16;;;;;;;72.60;7.47;;;22.70;42.10;;;;;;5014807;28;20506;-86
2022/09/06 00:22:42;;;;;;;71.83;8.90;;;22.70;69.90;;;;;;5014950;28;20809;-87
2022/09/06 00:25:09;;;;;;;67.07;7.00;;;22.40;75.50;;;;;;5013204;28;20455;-86
2022/09/06 00:27:34;;;;;;;70.70;8.27;;;22.20;77.80;;;;;;5014295;28;20190;-87
2022/09/06 00:30:00;;;;;;;67.80;7.80;;;21.90;93.90;;;;;;5013180;28;20958;-88
2022/09/06 00:32:26;;;;;;;71.90;8.73;;;21.70;99.70;;;;;;5012267;28;20170;-87
2022/09/06 00:34:52;;;;;;;70.20;7.70;;;21.70;99.90;;;;;;5012614;28;20179;-88
2022/09/06 00:37:18;;;;;;;66.20;6.93;;;21.80;99.90;;;;;;5014321;28;20834;-87
2022/09/06 00:39:44;;;;;;;70.27;8.80;;;21.80;99.90;;;;;;5033492;28;20600;-87
2022/09/06 00:42:11;;;;;;;68.77;11.40;;;21.90;99.90;;;;;;5017025;28;20180;-87
2022/09/06 00:44:38;;;;;;;71.37;13.87;;;21.70;99.90;;;;;;5036030;28;20791;-86
2022/09/06 00:47:06;;;;;;;73.00;20.20;;;21.60;99.90;;;;;;5015810;28;20816;-87
2022/09/06 00:49:38;;;;;;;72.47;25.90;;;21.60;99.90;;;;;;5034232;28;20400;-86
2022/09/06 00:52:08;;;;;;;72.90;21.33;;;21.60;99.90;;;;;;5033761;28;20395;-86
2022/09/06 00:54:34;;;;;;;70.80;18.70;;;21.60;99.90;;;;;;5035239;28;20400;-86
2022/09/06 00:57:01;;;;;;;73.53;21.37;;;21.70;99.90;;;;;;5018077;28;20460;-86
2022/09/06 00:59:31;;;;;;;74.87;19.60;;;21.70;99.90;;;;;;5016723;28;20412;-86
2022/09/06 01:01:57;;;;;;;73.00;20.17;;;21.60;99.90;;;;;;5034666;28;20786;-86
2022/09/06 01:04:24;;;;;;;70.90;17.27;;;21.70;99.90;;;;;;5035627;28;20419;-86
2022/09/06 01:07:11;;;;;;;72.67;16.77;;;21.70;99.90;;;;;;5016592;28;20435;-86
2022/09/06 01:09:57;;;;;;;71.93;15.97;;;21.80;99.90;;;;;;5034849;28;20494;-87
2022/09/06 01:12:41;;;;;;;70.80;16.03;;;21.80;99.90;;;;;;5018163;28;20451;-86
2022/09/06 01:15:28;;;;;;;68.40;15.43;;;21.70;99.90;;;;;;5034199;28;20384;-86
2022/09/06 01:18:10;;;;;;;70.67;15.80;;;21.70;99.90;;;;;;5016351;28;20467;-86
2022/09/06 01:20:35;;;;;;;70.20;15.80;;;21.70;99.90;;;;;;5016830;28;20400;-87
2022/09/06 01:23:10;;;;;;;72.23;14.10;;;21.70;99.90;;;;;;5036124;28;20427;-87
2022/09/06 01:25:54;;;;;;;69.70;14.73;;;21.70;99.90;;;;;;5019223;28;20185;-86
2022/09/06 01:28:20;;;;;;;71.33;14.13;;;21.80;99.90;;;;;;5018063;28;20432;-86
2022/09/06 01:31:24;;;;;;;71.10;14.70;;;21.70;99.90;;;;;;5018125;28;20419;-86
2022/09/06 01:33:53;;;;;;;74.13;14.97;;;21.60;99.90;;;;;;5034040;28;20212;-86
2022/09/06 01:36:25;;;;;;;70.43;12.80;;;21.60;99.90;;;;;;5037338;28;20404;-87
2022/09/06 01:38:50;;;;;;;71.40;13.70;;;21.50;99.90;;;;;;5036386;28;20526;-87
2022/09/06 01:41:16;;;;;;;69.00;13.40;;;21.60;99.90;;;;;;5036386;28;20427;-87
2022/09/06 01:43:47;;;;;;;75.13;16.43;;;21.60;99.90;;;;;;5037048;28;20166;-87
2022/09/06 01:46:33;;;;;;;72.13;14.93;;;21.70;99.90;;;;;;5018835;28;20165;-87
2022/09/06 01:49:13;;;;;;;69.20;13.20;;;21.70;99.90;;;;;;5018699;28;20432;-87
2022/09/06 01:51:39;;;;;;;74.97;14.80;;;21.80;99.90;;;;;;5018921;28;20388;-87
2022/09/06 01:54:36;;;;;;;71.90;13.17;;;21.70;99.90;;;;;;5018762;28;20404;-87
2022/09/06 01:57:31;;;;;;;72.90;12.00;;;21.60;99.90;;;;;;5036927;28;20188;-87
2022/09/06 02:00:19;;;;;;;72.53;13.13;;;21.40;99.90;;;;;;5018647;28;20408;-87
2022/09/06 02:02:53;;;;;;;70.93;14.43;;;21.50;99.90;;;;;;5037014;28;20384;-86
2022/09/06 02:05:22;;;;;;;69.37;12.67;;;21.40;99.90;;;;;;5037005;28;20903;-86
2022/09/06 02:07:53;;;;;;;70.20;12.87;;;21.40;99.90;;;;;;5018837;28;20474;-86
2022/09/06 02:10:28;;;;;;;70.67;11.03;;;21.40;99.90;;;;;;5038112;28;20871;-86
2022/09/06 02:12:58;;;;;;;72.10;11.67;;;21.40;99.90;;;;;;5020221;28;20404;-86
2022/09/06 02:15:49;;;;;;;72.57;11.93;;;21.30;99.90;;;;;;5021695;28;20407;-86
2022/09/06 02:18:21;;;;;;;68.20;10.90;;;21.30;99.90;;;;;;5019741;28;20448;-87
2022/09/06 02:20:51;;;;;;;71.67;10.63;;;21.40;99.90;;;;;;5037242;28;20396;-86
2022/09/06 02:23:19;;;;;;;69.13;11.03;;;21.30;99.90;;;;;;5037628;28;20495;-86
2022/09/06 02:26:34;;;;;;;70.40;11.20;;;21.40;99.90;;;;;;5037250;28;20401;-87
2022/09/06 02:29:00;;;;;;;70.40;12.60;;;21.30;99.90;;;;;;5012098;28;20491;-86
2022/09/06 02:31:37;;;;;;;69.00;10.40;;;21.30;99.90;;;;;;5035467;28;20423;-86
2022/09/06 02:34:04;;;;;;;73.00;10.73;;;21.40;99.90;;;;;;5036016;28;20390;-86
2022/09/06 02:36:31;;;;;;;68.87;10.33;;;21.30;99.90;;;;;;5035921;28;20756;-86
2022/09/06 02:38:58;;;;;;;70.30;9.03;;;21.40;99.90;;;;;;5018405;28;20431;-86
2022/09/06 02:41:26;;;;;;;71.27;9.07;;;21.40;99.90;;;;;;5038536;28;20435;-86
2022/09/06 02:43:51;;;;;;;74.47;9.80;;;21.50;99.90;;;;;;5018341;28;20763;-86
2022/09/06 02:46:17;;;;;;;71.27;8.33;;;21.50;99.90;;;;;;5037090;28;20412;-86
2022/09/06 02:48:43;;;;;;;70.07;8.40;;;21.50;99.90;;;;;;5035852;28;20224;-86
2022/09/06 02:51:09;;;;;;;71.90;9.90;;;21.40;99.90;;;;;;5035553;28;20181;-86
2022/09/06 02:53:35;;;;;;;73.90;9.63;;;21.30;99.90;;;;;;5017323;28;20220;-86
2022/09/06 02:56:01;;;;;;;67.53;8.60;;;21.00;99.90;;;;;;5034976;28;20248;-86
2022/09/06 02:58:27;;;;;;;68.77;8.13;;;20.80;99.90;;;;;;5017005;28;20459;-86
2022/09/06 03:00:53;;;;;;;73.50;8.23;;;20.70;99.90;;;;;;5035229;28;20400;-86
2022/09/06 03:03:22;;;;;;;71.53;8.23;;;20.60;99.90;;;;;;5035116;28;20192;-86
2022/09/06 03:05:49;;;;;;;68.87;8.30;;;20.60;99.90;;;;;;5017185;28;20771;-86
2022/09/06 03:08:16;;;;;;;69.00;7.53;;;20.60;99.90;;;;;;5016815;28;20895;-86
2022/09/06 03:10:51;;;;;;;68.50;8.50;;;20.70;99.90;;;;;;5034913;28;20507;-86
2022/09/06 03:13:16;;;;;;;74.20;8.50;;;20.80;99.90;;;;;;5034624;28;20891;-86
2022/09/06 03:15:42;;;;;;;67.40;7.90;;;20.80;99.90;;;;;;5017134;28;20413;-86
2022/09/06 03:18:08;;;;;;;68.27;8.17;;;20.70;99.90;;;;;;5034597;28;20451;-86
2022/09/06 03:20:34;;;;;;;68.10;8.07;;;20.80;99.90;;;;;;5016899;28;20512;-86
2022/09/06 03:23:02;;;;;;;70.27;8.90;;;20.80;99.90;;;;;;5034785;28;20408;-86
2022/09/06 03:25:28;;;;;;;67.87;7.37;;;20.80;99.90;;;;;;5034870;28;20660;-86
2022/09/06 03:27:54;;;;;;;68.33;8.03;;;21.00;99.90;;;;;;5034614;28;20431;-86
2022/09/06 03:30:19;;;;;;;71.50;8.40;;;21.00;99.90;;;;;;5034776;28;20176;-86
2022/09/06 03:32:45;;;;;;;66.50;7.47;;;21.00;99.90;;;;;;5034603;28;20181;-86
2022/09/06 03:35:11;;;;;;;69.60;8.23;;;21.10;99.90;;;;;;5016728;28;20541;-86
2022/09/06 03:37:37;;;;;;;70.50;8.17;;;21.10;99.90;;;;;;5016448;28;20193;-86
2022/09/06 03:40:05;;;;;;;67.20;7.40;;;21.10;99.90;;;;;;5034602;28;20157;-86
2022/09/06 03:42:32;;;;;;;67.93;6.73;;;21.10;99.90;;;;;;5035356;28;20169;-86
2022/09/06 03:44:57;;;;;;;66.20;6.23;;;21.10;99.90;;;;;;5035378;28;20426;-86
2022/09/06 03:47:23;;;;;;;69.20;7.20;;;21.10;99.90;;;;;;5036068;28;20423;-86
2022/09/06 03:49:50;;;;;;;69.43;7.43;;;21.00;99.90;;;;;;5039494;28;20260;-86
2022/09/06 03:52:16;;;;;;;69.33;6.80;;;21.10;99.90;;;;;;5021036;28;20177;-87
2022/09/06 03:54:42;;;;;;;66.77;6.60;;;21.00;99.90;;;;;;5037476;28;20408;-86
2022/09/06 03:57:08;;;;;;;68.90;6.90;;;21.00;99.90;;;;;;5019620;28;20456;-87
2022/09/06 03:59:34;;;;;;;76.87;7.10;;;21.00;99.90;;;;;;5018117;28;20240;-86
2022/09/06 04:02:00;;;;;;;68.00;7.63;;;20.90;99.90;;;;;;5034578;28;20535;-86
2022/09/06 04:04:25;;;;;;;67.17;6.97;;;20.80;99.90;;;;;;5035035;28;20403;-86
2022/09/06 04:06:51;;;;;;;68.43;7.40;;;20.80;99.90;;;;;;5034783;28;20582;-86
2022/09/06 04:09:17;;;;;;;66.97;7.73;;;20.80;99.90;;;;;;5018872;28;20637;-87
2022/09/06 04:11:42;;;;;;;67.97;7.10;;;20.80;99.90;;;;;;5020333;28;20260;-86
2022/09/06 04:14:08;;;;;;;67.30;7.47;;;20.70;99.90;;;;;;5037653;28;20170;-86
2022/09/06 04:16:34;;;;;;;68.50;7.83;;;20.70;99.90;;;;;;5019529;28;20169;-86
2022/09/06 04:19:01;;;;;;;67.47;6.80;;;20.60;99.90;;;;;;5037243;28;20186;-87
2022/09/06 04:21:27;;;;;;;67.87;7.67;;;20.60;99.90;;;;;;5036738;28;20227;-86
2022/09/06 04:23:52;;;;;;;66.70;7.53;;;20.50;99.90;;;;;;5019289;28;20405;-86
2022/09/06 04:26:18;;;;;;;70.57;8.40;;;20.50;99.90;;;;;;5036590;28;20166;-86
2022/09/06 04:28:44;;;;;;;68.43;8.00;;;20.50;99.90;;;;;;5036461;28;20163;-86
2022/09/06 04:31:10;;;;;;;67.57;7.10;;;20.50;99.90;;;;;;5036549;28;20176;-87
2022/09/06 04:33:37;;;;;;;69.80;7.97;;;20.40;99.90;;;;;;5018939;28;20169;-86
2022/09/06 04:36:05;;;;;;;66.97;7.73;;;20.40;99.90;;;;;;5018240;28;20175;-86
2022/09/06 04:38:36;;;;;;;68.77;8.60;;;20.40;99.90;;;;;;5109840;22;20522;-83
2022/09/06 04:41:03;;;;;;;71.47;8.80;;;20.30;99.90;;;;;;5042167;28;20377;-82
2022/09/06 04:43:28;;;;;;;72.60;9.97;;;20.20;99.90;;;;;;5043012;28;20407;-83
2022/09/06 04:45:54;;;;;;;72.57;10.17;;;20.30;99.90;;;;;;5042700;28;20395;-82
2022/09/06 04:48:23;;;;;;;73.43;10.63;;;20.20;99.90;;;;;;5042830;28;20191;-83
2022/09/06 04:50:48;;;;;;;70.90;10.20;;;20.20;99.90;;;;;;5042808;28;20180;-83
2022/09/06 04:53:14;;;;;;;73.40;11.00;;;20.20;99.90;;;;;;5041837;28;20385;-83
2022/09/06 04:55:40;;;;;;;71.80;10.33;;;20.20;99.90;;;;;;5025959;28;20206;-83
2022/09/06 04:58:05;;;;;;;74.40;11.20;;;20.20;99.90;;;;;;5046449;28;20200;-84
2022/09/06 05:00:33;;;;;;;71.67;12.53;;;20.20;99.90;;;;;;5028392;28;20166;-84
2022/09/06 05:02:58;;;;;;;72.27;12.00;;;20.10;99.90;;;;;;5028687;28;20179;-84
2022/09/06 05:05:24;;;;;;;74.87;11.70;;;20.10;99.90;;;;;;5028261;28;20417;-84
2022/09/06 05:07:54;;;;;;;73.80;10.97;;;20.10;99.90;;;;;;5030026;28;20189;-84
2022/09/06 05:10:21;;;;;;;77.33;11.87;;;20.10;99.90;;;;;;5047800;28;20168;-84
2022/09/06 05:12:52;;;;;;;75.10;11.23;;;20.00;99.90;;;;;;5030397;28;20419;-84
2022/09/06 05:15:19;;;;;;;72.17;10.30;;;19.90;99.90;;;;;;5048107;28;20424;-84
2022/09/06 05:17:45;;;;;;;70.70;10.00;;;20.00;99.90;;;;;;5049780;28;20442;-84
2022/09/06 05:20:12;;;;;;;71.53;10.07;;;20.00;99.90;;;;;;5049748;28;20487;-84
2022/09/06 05:22:39;;;;;;;71.20;10.60;;;20.00;99.90;;;;;;5049736;28;20419;-84
2022/09/06 05:25:06;;;;;;;72.43;10.50;;;20.10;99.90;;;;;;5048134;28;20454;-84
2022/09/06 05:27:31;;;;;;;70.73;11.20;;;20.00;99.90;;;;;;5049028;28;20427;-84
2022/09/06 05:29:57;;;;;;;70.80;10.50;;;20.00;99.90;;;;;;5048081;28;20487;-84
2022/09/06 05:32:23;;;;;;;69.80;10.63;;;20.00;99.90;;;;;;5031131;28;20184;-84
2022/09/06 05:34:49;;;;;;;71.87;11.60;;;19.90;99.90;;;;;;5030271;28;20223;-84
2022/09/06 05:37:14;;;;;;;72.50;10.37;;;20.00;99.90;;;;;;5047260;28;20507;-84
2022/09/06 05:39:40;;;;;;;70.57;11.20;;;20.00;99.90;;;;;;5030409;28;20163;-84
2022/09/06 05:42:06;;;;;;;72.77;10.80;;;20.00;99.90;;;;;;5047251;28;20162;-84
2022/09/06 05:44:36;;;;;;;69.47;10.83;;;20.10;99.90;;;;;;5029068;28;20167;-84
2022/09/06 05:47:02;;;;;;;72.30;10.33;;;20.10;99.90;;;;;;5047823;28;20184;-84
2022/09/06 05:49:29;;;;;;;71.67;11.13;;;20.10;99.90;;;;;;5030475;28;20921;-84
2022/09/06 05:51:55;;;;;;;70.37;10.67;;;20.10;99.90;;;;;;5047574;28;20480;-84
2022/09/06 05:54:21;;;;;;;69.30;11.07;;;20.10;99.90;;;;;;5047577;28;20405;-84
2022/09/06 05:56:47;;;;;;;70.50;11.73;;;20.10;99.90;;;;;;5048381;28;20615;-83
2022/09/06 05:59:13;;;;;;;76.87;10.80;;;20.10;99.90;;;;;;5029798;28;20412;-84
2022/09/06 06:01:47;;;;;;;76.70;9.57;;;20.10;99.90;;;;;;5047660;28;20829;-84
2022/09/06 06:04:13;;;;;;;74.27;13.40;;;20.10;99.90;;;;;;5048566;28;20156;-83
2022/09/06 06:06:39;;;;;;;72.47;13.50;;;20.10;99.90;;;;;;5048095;28;20426;-83
2022/09/06 06:09:05;;;;;;;71.57;12.23;;;20.10;99.90;;;;;;5029566;28;20914;-84
2022/09/06 06:11:31;;;;;;;70.87;11.67;;;20.10;99.90;;;;;;5046502;28;20166;-84
2022/09/06 06:13:57;;;;;;;78.90;14.30;;;20.10;99.90;;;;;;5047464;28;20162;-84
2022/09/06 06:16:24;;;;;;;71.43;12.80;;;20.10;99.90;;;;;;5030037;28;20442;-84
2022/09/06 06:18:50;;;;;;;71.53;13.67;;;20.10;99.90;;;;;;5029233;28;20480;-84
2022/09/06 06:21:25;;;;;;;72.87;15.13;;;20.00;99.90;;;;;;5047543;28;20399;-83
2022/09/06 06:23:54;;;;;;;70.50;12.77;;;20.10;99.90;;;;;;5045421;28;20480;-83
2022/09/06 06:26:20;;;;;;;71.37;12.17;;;20.10;99.90;;;;;;5045180;28;20737;-82
2022/09/06 06:28:47;;;;;;;71.10;13.60;;;20.00;99.90;;;;;;5044514;28;20400;-83
2022/09/06 06:31:13;;;;;;;69.80;12.97;;;20.00;99.90;;;;;;5044501;28;20909;-83
2022/09/06 06:33:39;;;;;;;71.07;13.37;;;20.00;99.90;;;;;;5044579;28;20401;-82
2022/09/06 06:36:19;;;;;;;73.23;12.87;;;20.10;99.90;;;;;;5028619;28;20224;-83
2022/09/06 06:38:45;;;;;;;74.17;13.57;;;20.20;99.90;;;;;;5026370;28;20463;-83
2022/09/06 06:41:13;;;;;;;71.67;12.83;;;20.20;99.90;;;;;;5026758;28;20766;-82
2022/09/06 06:43:39;;;;;;;71.03;12.93;;;20.30;99.90;;;;;;5043358;28;20504;-83
2022/09/06 06:46:13;;;;;;;73.03;12.77;;;20.30;99.90;;;;;;5025698;28;20413;-82
2022/09/06 06:48:40;;;;;;;74.97;13.73;;;20.30;99.90;;;;;;5043624;28;20426;-83
2022/09/06 06:51:27;;;;;;;72.33;12.30;;;20.30;99.90;;;;;;5044618;28;20389;-83
2022/09/06 06:53:55;;;;;;;70.50;12.20;;;20.40;99.90;;;;;;5042967;28;20775;-84
2022/09/06 06:56:28;;;;;;;72.30;11.80;;;20.40;99.90;;;;;;5042893;28;20408;-83
2022/09/06 06:58:56;;;;;;;71.50;12.40;;;20.50;99.90;;;;;;5024665;28;20483;-83
2022/09/06 07:01:24;;;;;;;73.43;12.67;;;20.50;99.90;;;;;;5021031;28;20436;-84
2022/09/06 07:03:51;;;;;;;70.07;11.73;;;20.50;99.90;;;;;;5021327;28;20951;-84
2022/09/06 07:06:18;;;;;;;75.30;11.50;;;20.50;99.90;;;;;;5024399;28;20428;-83
2022/09/06 07:08:45;;;;;;;73.90;13.87;;;20.60;99.90;;;;;;5025218;28;20416;-84
2022/09/06 07:11:15;;;;;;;77.27;14.60;;;20.60;99.90;;;;;;5025261;28;20442;-84
2022/09/06 07:13:41;;;;;;;72.37;14.37;;;20.60;99.90;;;;;;5025637;28;20752;-84
2022/09/06 07:16:23;;;;;;;71.67;12.87;;;20.60;99.90;;;;;;5043090;28;20398;-84
2022/09/06 07:18:53;;;;;;;72.60;13.87;;;20.70;99.90;;;;;;5024336;28;20668;-84
2022/09/06 07:21:25;;;;;;;72.20;13.87;;;20.80;99.90;;;;;;5025023;28;20404;-83
2022/09/06 07:23:52;;;;;;;71.03;12.60;;;20.80;99.90;;;;;;5026081;28;20400;-83
2022/09/06 07:26:21;;;;;;;73.13;14.13;;;20.80;99.90;;;;;;5021672;28;20779;-83
2022/09/06 07:28:47;;;;;;;71.30;12.63;;;20.80;99.90;;;;;;5038762;28;20470;-83
2022/09/06 07:31:13;;;;;;;72.50;11.13;;;20.80;99.90;;;;;;5039750;28;20409;-82
2022/09/06 07:33:39;;;;;;;72.77;10.37;;;20.90;99.90;;;;;;5021412;28;20755;-83
2022/09/06 07:36:07;;;;;;;71.10;9.90;;;20.90;99.90;;;;;;5039202;28;20462;-83
2022/09/06 07:38:34;;;;;;;69.63;10.50;;;20.90;99.90;;;;;;5037627;28;20483;-82
2022/09/06 07:41:09;;;;;;;69.00;8.67;;;21.00;99.90;;;;;;5037907;28;20393;-83
2022/09/06 07:43:36;;;;;;;68.30;9.30;;;20.90;99.90;;;;;;5038303;28;20869;-82
2022/09/06 07:46:05;;;;;;;66.67;6.27;;;21.00;99.90;;;;;;5037390;28;20407;-83
2022/09/06 07:48:33;;;;;;;65.70;5.33;;;21.10;99.90;;;;;;5020726;28;20420;-84
2022/09/06 07:51:20;;;;;;;66.33;5.00;;;21.20;99.90;;;;;;5041615;28;20396;-83
2022/09/06 07:53:54;;;;;;;69.63;5.37;;;21.20;99.90;;;;;;5025423;28;20451;-84
2022/09/06 07:56:21;;;;;;;67.90;6.53;;;21.30;99.90;;;;;;5043437;28;20725;-84
2022/09/06 07:58:48;;;;;;;66.07;5.10;;;21.30;99.90;;;;;;5024189;28;20454;-84
2022/09/06 08:01:17;;;;;;;68.83;5.57;;;21.40;99.90;;;;;;5024454;28;20799;-84
2022/09/06 08:03:43;;;;;;;64.50;5.90;;;21.40;99.90;;;;;;5042401;28;20470;-84
2022/09/06 08:06:09;;;;;;;67.50;8.00;;;21.40;99.90;;;;;;5023675;28;20409;-84
2022/09/06 08:08:35;;;;;;;67.40;5.10;;;21.50;99.90;;;;;;5036191;28;20412;-83
2022/09/06 08:11:01;;;;;;;66.70;6.80;;;21.60;99.90;;;;;;5035162;28;20542;-82
2022/09/06 08:13:27;;;;;;;65.87;5.70;;;21.60;99.90;;;;;;5035110;28;20166;-82
2022/09/06 08:16:07;;;;;;;65.70;4.70;;;21.80;99.90;;;;;;5016882;28;20412;-82
2022/09/06 08:18:34;;;;;;;67.13;5.73;;;21.80;99.90;;;;;;5018476;28;20742;-82
2022/09/06 08:21:08;;;;;;;67.90;5.77;;;21.90;99.90;;;;;;5017370;28;20771;-82
2022/09/06 08:23:34;;;;;;;65.10;4.80;;;22.00;99.90;;;;;;5018477;28;20423;-82
2022/09/06 08:26:00;;;;;;;65.20;4.97;;;22.00;99.90;;;;;;5034408;28;20400;-82
2022/09/06 08:28:26;;;;;;;65.40;3.77;;;22.10;99.90;;;;;;5034575;28;20185;-82
2022/09/06 08:30:51;;;;;;;68.13;4.40;;;22.10;98.20;;;;;;5035074;28;20872;-82
2022/09/06 08:33:24;;;;;;;65.67;3.47;;;22.10;96.10;;;;;;5034849;28;20411;-82
2022/09/06 08:35:59;;;;;;;66.80;4.40;;;22.20;92.20;;;;;;5036238;28;20146;-83
2022/09/06 08:38:26;;;;;;;67.80;3.77;;;22.30;94.70;;;;;;5017441;28;20554;-81
2022/09/06 08:40:54;;;;;;;66.60;3.40;;;22.40;85.90;;;;;;5035641;28;20428;-83
2022/09/06 08:43:21;;;;;;;64.77;3.50;;;22.50;85.90;;;;;;5040143;28;20407;-82
2022/09/06 08:45:54;;;;;;;64.00;3.13;;;22.70;82.70;;;;;;5042780;28;20396;-83
2022/09/06 08:48:21;;;;;;;66.30;3.90;;;22.70;77.60;;;;;;5045054;28;20420;-84
2022/09/06 08:51:14;;;;;;;65.70;4.47;;;22.80;67.90;;;;;;5047184;28;20423;-84
2022/09/06 08:53:45;;;;;;;65.47;4.90;;;22.80;67.80;;;;;;5046161;28;20399;-84
2022/09/06 08:56:16;;;;;;;65.33;4.50;;;22.90;60.40;;;;;;5027876;28;20487;-82
2022/09/06 08:59:01;;;;;;;65.77;4.70;;;23.00;59.40;;;;;;5038851;28;20452;-82
2022/09/06 09:01:37;;;;;;;66.67;4.57;;;23.00;60.60;;;;;;5040126;28;20797;-82
2022/09/06 09:04:06;;;;;;;66.27;6.30;;;23.10;61.60;;;;;;5039976;28;20915;-82
2022/09/06 09:06:32;;;;;;;67.10;6.47;;;23.10;57.20;;;;;;5040097;28;20491;-80
2022/09/06 09:09:13;;;;;;;65.47;6.20;;;23.20;52.30;;;;;;5022825;28;20506;-82
2022/09/06 09:11:45;;;;;;;66.70;6.60;;;23.30;57.30;;;;;;5040327;28;20391;-82
2022/09/06 09:14:19;;;;;;;67.00;6.70;;;23.50;47.20;;;;;;5040136;28;20420;-82
2022/09/06 09:16:50;;;;;;;67.50;6.93;;;23.60;35.80;;;;;;5039472;28;20431;-84
2022/09/06 09:19:15;;;;;;;66.60;7.23;;;23.70;34.70;;;;;;5039542;28;20390;-82
2022/09/06 09:21:41;;;;;;;67.07;5.30;;;23.80;36.90;;;;;;5021509;28;20503;-82
2022/09/06 09:24:10;;;;;;;67.47;6.83;;;23.80;28.10;;;;;;5039633;28;20809;-81
2022/09/06 09:26:48;;;;;;;68.00;7.30;;;23.90;29.20;;;;;;5021408;28;20161;-82
2022/09/06 09:29:15;;;;;;;67.30;8.17;;;24.00;29.00;;;;;;5040630;28;20384;-82
2022/09/06 09:31:48;;;;;;;66.80;6.03;;;24.10;25.30;;;;;;5039356;28;20414;-82
2022/09/06 09:34:35;;;;;;;66.07;6.37;;;24.40;23.20;;;;;;5039497;28;20404;-82
2022/09/06 09:37:23;;;;;;;65.60;5.23;;;24.50;21.40;;;;;;5020372;28;20455;-82
2022/09/06 09:39:53;;;;;;;66.17;3.30;;;24.60;16.30;;;;;;5038851;28;20483;-83
2022/09/06 09:42:31;;;;;;;65.67;3.77;;;24.70;15.00;;;;;;5038903;28;20388;-82
2022/09/06 09:44:58;;;;;;;65.83;3.33;;;24.70;12.80;;;;;;5038524;28;20384;-82
2022/09/06 09:47:29;;;;;;;66.30;3.00;;;24.80;8.10;;;;;;5039861;28;20772;-83
2022/09/06 09:49:56;;;;;;;66.13;2.90;;;24.90;1.00;;;;;;5040715;28;20408;-82
2022/09/06 09:52:26;;;;;;;65.17;2.70;;;25.10;1.00;;;;;;5037432;28;20396;-82
2022/09/06 09:55:04;;;;;;;67.07;3.20;;;25.20;2.60;;;;;;5037471;28;20437;-82
2022/09/06 09:57:41;;;;;;;65.30;2.50;;;25.30;3.40;;;;;;5039380;28;20448;-84
2022/09/06 10:00:11;;;;;;;65.00;2.27;;;25.50;1.50;;;;;;5037899;28;20789;-82
2022/09/06 10:02:41;;;;;;;64.67;2.20;;;25.70;1.00;;;;;;5019324;28;20410;-82
2022/09/06 10:05:16;;;;;;;68.53;2.50;;;25.80;1.00;;;;;;5037534;28;20435;-82
2022/09/06 10:07:46;;;;;;;66.10;2.50;;;26.00;1.00;;;;;;5019324;28;20795;-82
2022/09/06 10:10:19;;;;;;;69.50;2.67;;;26.10;1.00;;;;;;5037864;28;20407;-82
2022/09/06 10:12:44;;;;;;;66.17;2.50;;;26.30;1.00;;;;;;5037063;28;20748;-82
2022/09/06 10:15:31;;;;;;;65.03;2.10;;;26.30;1.00;;;;;;5037188;28;20415;-82
2022/09/06 10:17:56;;;;;;;69.80;2.50;;;26.50;1.00;;;;;;5019125;28;20207;-82
2022/09/06 10:20:30;;;;;;;65.60;2.60;;;26.70;1.00;;;;;;5037370;28;20490;-82
2022/09/06 10:23:19;;;;;;;66.60;2.60;;;26.80;1.00;;;;;;5037381;28;20153;-82
2022/09/06 10:25:51;;;;;;;65.53;2.70;;;27.10;1.00;;;;;;5037671;28;20391;-82
2022/09/06 10:28:42;;;;;;;66.07;2.30;;;27.30;1.00;;;;;;5019737;28;20443;-82
2022/09/06 10:31:18;;;;;;;66.90;2.60;;;27.60;1.00;;;;;;5019973;28;20443;-83
2022/09/06 10:34:02;;;;;;;66.80;2.33;;;27.80;1.00;;;;;;5036817;28;20372;-82
2022/09/06 10:39:19;;;;;;;69.00;2.80;;;28.10;1.00;;;;;;5091291;22;21050;-82
2022/09/06 10:42:12;;;;;;;67.43;3.60;;;28.20;1.00;;;;;;5037148;28;20852;-82
2022/09/06 10:44:54;;;;;;;66.93;2.83;;;28.40;1.00;;;;;;5037828;28;20387;-82
2022/09/06 10:47:31;;;;;;;67.00;2.90;;;28.70;1.00;;;;;;5036951;28;20450;-82
2022/09/06 10:49:59;;;;;;;67.73;3.13;;;28.70;1.00;;;;;;5037421;28;20380;-83
2022/09/06 10:52:32;;;;;;;69.73;2.70;;;28.70;1.00;;;;;;5037597;28;20400;-82
2022/09/06 10:55:03;;;;;;;69.80;2.50;;;28.70;1.00;;;;;;5036274;28;20407;-82
2022/09/06 10:57:46;;;;;;;68.90;2.60;;;28.90;1.00;;;;;;5035563;28;20462;-82
2022/09/06 11:00:13;;;;;;;67.70;2.60;;;28.90;1.00;;;;;;5018695;28;20408;-83
2022/09/06 11:02:44;;;;;;;68.30;2.83;;;28.60;1.00;;;;;;5018254;28;20408;-83
2022/09/06 11:05:29;;;;;;;66.60;2.30;;;28.60;1.00;;;;;;5036027;28;20388;-83
2022/09/06 11:08:04;;;;;;;65.97;2.20;;;28.80;1.00;;;;;;5018555;28;20447;-83
2022/09/06 11:10:37;;;;;;;68.17;2.77;;;28.90;1.00;;;;;;5018071;28;20412;-82
2022/09/06 11:13:19;;;;;;;69.60;2.40;;;29.10;1.00;;;;;;5036135;28;20467;-83
2022/09/06 11:15:56;;;;;;;68.33;3.10;;;29.40;1.00;;;;;;5036293;28;20377;-83
2022/09/06 11:18:37;;;;;;;65.97;2.23;;;29.70;1.00;;;;;;5036062;28;20448;-83
2022/09/06 11:21:25;;;;;;;66.10;2.20;;;29.90;1.00;;;;;;5036230;28;20918;-83
2022/09/06 11:24:12;;;;;;;66.60;2.73;;;30.00;1.00;;;;;;5017943;28;20439;-82
2022/09/06 11:26:44;;;;;;;66.17;2.53;;;29.90;1.00;;;;;;5017965;28;20447;-82
2022/09/06 11:29:21;;;;;;;68.87;2.40;;;30.20;1.00;;;;;;5017855;28;20423;-83
2022/09/06 11:31:50;;;;;;;67.17;2.37;;;30.60;1.00;;;;;;5018703;28;20404;-83
2022/09/06 11:34:25;;;;;;;69.00;2.90;;;30.60;1.00;;;;;;5018777;28;20500;-83
2022/09/06 11:36:55;;;;;;;67.97;2.93;;;30.80;1.00;;;;;;5018472;28;20443;-82
2022/09/06 11:39:34;;;;;;;69.27;3.23;;;31.00;1.00;;;;;;5019022;28;20491;-82
2022/09/06 11:42:00;;;;;;;68.80;3.80;;;31.00;1.00;;;;;;5036819;28;20876;-82
2022/09/06 11:44:53;;;;;;;66.73;3.27;;;31.00;1.00;;;;;;5035783;28;20828;-82
2022/09/06 11:47:39;;;;;;;68.27;3.53;;;30.90;1.00;;;;;;4995703;28;20432;-82
2022/09/06 11:50:20;;;;;;;67.20;3.90;;;30.70;1.00;;;;;;5018513;28;20424;-83
2022/09/06 11:53:15;;;;;;;70.00;3.87;;;30.70;1.00;;;;;;5036045;28;20400;-83
2022/09/06 11:55:58;;;;;;;68.20;3.63;;;30.90;1.00;;;;;;5035984;28;20380;-83
2022/09/06 11:58:39;;;;;;;67.10;2.40;;;30.60;1.00;;;;;;5018021;28;20915;-83
2022/09/06 12:01:11;;;;;;;66.80;3.33;;;30.40;1.00;;;;;;5036354;28;20408;-83
2022/09/06 12:03:51;;;;;;;67.37;3.90;;;30.60;1.00;;;;;;5017784;28;20503;-83
2022/09/06 12:06:21;;;;;;;68.50;3.70;;;30.30;1.00;;;;;;5017063;28;20441;-82
2022/09/06 12:08:49;;;;;;;66.57;3.60;;;30.00;1.00;;;;;;5035844;28;20443;-83
2022/09/06 12:11:42;;;;;;;69.10;3.30;;;29.60;1.00;;;;;;5035993;28;20450;-83
2022/09/06 12:14:26;;;;;;;65.77;2.60;;;29.30;1.00;;;;;;5019584;28;20416;-84
2022/09/06 12:16:54;;;;;;;66.13;2.30;;;28.80;1.00;;;;;;5037136;28;20915;-84
2022/09/06 12:20:05;;;;;;;68.40;2.60;;;28.80;1.00;;;;;;5037993;28;20415;-84
2022/09/06 12:22:39;;;;;;;66.40;2.13;;;29.10;1.00;;;;;;5012408;28;20867;-83
2022/09/06 12:25:07;;;;;;;66.43;2.57;;;29.50;1.00;;;;;;5018255;28;20393;-83
2022/09/06 12:27:38;;;;;;;66.77;2.60;;;29.70;1.00;;;;;;5037556;28;20423;-83
2022/09/06 12:30:06;;;;;;;71.40;3.00;;;30.10;1.00;;;;;;5019665;28;20756;-83
2022/09/06 12:32:45;;;;;;;70.40;3.70;;;30.30;1.00;;;;;;5037189;28;20921;-83
2022/09/06 12:35:19;;;;;;;67.90;3.80;;;30.50;1.00;;;;;;5019518;28;20500;-83
2022/09/06 12:38:05;;;;;;;70.60;2.90;;;30.10;1.00;;;;;;5036840;28;20556;-84
2022/09/06 12:40:42;;;;;;;68.60;3.20;;;29.90;1.00;;;;;;5036301;28;20860;-83
2022/09/06 12:43:10;;;;;;;66.27;2.53;;;30.10;1.00;;;;;;5035746;28;20391;-82
2022/09/06 12:45:49;;;;;;;70.57;2.87;;;30.40;1.00;;;;;;5035422;28;20407;-83
2022/09/06 12:48:29;;;;;;;70.73;2.33;;;30.60;1.00;;;;;;5036125;28;20446;-83
2022/09/06 12:51:14;;;;;;;69.30;2.80;;;30.80;1.00;;;;;;5037014;28;20394;-83
2022/09/06 12:53:52;;;;;;;72.30;2.67;;;30.90;1.00;;;;;;5037447;28;20381;-82
2022/09/06 12:56:23;;;;;;;70.00;2.40;;;30.90;1.00;;;;;;5020121;28;20489;-82
2022/09/06 12:58:49;;;;;;;67.90;2.30;;;30.60;1.00;;;;;;5037401;28;20982;-83